Time;durP1;ratioP1;P1;durP2;ratioP2;P2;SDS_P1;SDS_P2;PMS_P1;PMS_P2;Temp;Humidity;BMP_temperature;BMP_pressure;BME280_temperature;BME280_humidity;BME280_pressure;Samples;Min_cycle;Max_cycle;Signal;HPM_P1;HPM_P2
2021/07/03 00:00:55;;;;;;;38.75;35.03;;;15.50;99.90;;;;;;3609078;39;20247;-40
2021/07/03 00:03:23;;;;;;;35.15;31.67;;;15.50;99.90;;;;;;3608897;39;20229;-38
2021/07/03 00:05:50;;;;;;;31.52;23.55;;;15.50;99.90;;;;;;3608463;39;20237;-39
2021/07/03 00:08:17;;;;;;;32.28;28.90;;;15.40;99.90;;;;;;3608697;39;20248;-38
2021/07/03 00:10:44;;;;;;;24.25;21.95;;;15.30;99.90;;;;;;3608733;39;20240;-38
2021/07/03 00:13:12;;;;;;;21.30;19.05;;;15.30;99.90;;;;;;3608857;39;20229;-38
2021/07/03 00:15:39;;;;;;;22.13;19.77;;;15.30;99.90;;;;;;3608692;39;20251;-42
2021/07/03 00:18:06;;;;;;;22.05;20.00;;;15.40;99.90;;;;;;3608805;39;20495;-39
2021/07/03 00:20:34;;;;;;;25.98;23.42;;;15.30;99.90;;;;;;3608422;39;20248;-38
2021/07/03 00:23:01;;;;;;;24.63;21.02;;;15.20;99.90;;;;;;3611448;39;20516;-39
2021/07/03 00:25:49;;;;;;;23.05;20.70;;;15.10;99.90;;;;;;3618788;39;20535;-38
2021/07/03 00:28:16;;;;;;;24.95;20.48;;;15.00;99.90;;;;;;3648772;22;20244;-39
2021/07/03 00:30:44;;;;;;;23.58;21.48;;;15.00;99.90;;;;;;3617213;39;20244;-40
2021/07/03 00:33:11;;;;;;;21.55;19.52;;;15.00;99.90;;;;;;3619106;39;20336;-38
2021/07/03 00:35:39;;;;;;;24.95;22.67;;;14.90;99.90;;;;;;3618645;39;20236;-38
2021/07/03 00:38:08;;;;;;;29.77;23.58;;;14.50;99.90;;;;;;3618399;39;20244;-38
2021/07/03 00:40:35;;;;;;;26.15;23.58;;;14.30;99.90;;;;;;3618198;39;20515;-39
2021/07/03 00:43:02;;;;;;;35.40;27.73;;;14.10;99.90;;;;;;3618310;39;20231;-39
2021/07/03 00:45:30;;;;;;;30.95;28.13;;;14.20;99.90;;;;;;3617239;39;20604;-41
2021/07/03 00:47:58;;;;;;;26.92;24.13;;;14.20;99.90;;;;;;3618397;39;20612;-39
2021/07/03 00:50:26;;;;;;;30.13;27.10;;;14.20;99.90;;;;;;3618168;39;20255;-39
2021/07/03 00:52:55;;;;;;;26.70;23.85;;;14.50;99.90;;;;;;3618560;39;20245;-40
2021/07/03 00:55:27;;;;;;;24.58;22.08;;;14.60;99.90;;;;;;3618326;39;20242;-41
2021/07/03 00:57:55;;;;;;;23.48;21.17;;;14.70;99.90;;;;;;3618623;39;20239;-39
2021/07/03 01:00:26;;;;;;;23.50;20.88;;;14.70;99.90;;;;;;3617961;39;20479;-38
2021/07/03 01:02:56;;;;;;;23.77;21.23;;;14.70;99.90;;;;;;3617447;39;20244;-40
2021/07/03 01:05:23;;;;;;;21.75;19.50;;;14.70;99.90;;;;;;3618473;39;20240;-38
2021/07/03 01:07:51;;;;;;;21.63;19.73;;;14.70;99.90;;;;;;3617401;39;20514;-39
2021/07/03 01:10:22;;;;;;;21.00;19.00;;;14.60;99.90;;;;;;3617591;39;20309;-41
2021/07/03 01:12:53;;;;;;;24.48;20.10;;;14.50;99.90;;;;;;3618641;39;20252;-38
2021/07/03 01:15:22;;;;;;;21.80;19.65;;;14.50;99.90;;;;;;3618483;39;20523;-38
2021/07/03 01:17:49;;;;;;;23.25;20.95;;;14.40;99.90;;;;;;3617070;39;20244;-38
2021/07/03 01:20:18;;;;;;;21.92;19.63;;;14.30;99.90;;;;;;3617272;39;20256;-41
2021/07/03 01:22:47;;;;;;;25.50;21.83;;;14.20;99.90;;;;;;3616690;39;20599;-38
2021/07/03 01:25:16;;;;;;;23.27;21.02;;;14.10;99.90;;;;;;3607168;39;20410;-38
2021/07/03 01:27:57;;;;;;;22.90;20.50;;;14.20;99.90;;;;;;3606894;39;20274;-39
2021/07/03 01:30:25;;;;;;;23.80;21.35;;;14.30;99.90;;;;;;3608035;39;20237;-40
2021/07/03 01:32:53;;;;;;;23.52;21.42;;;14.20;99.90;;;;;;3606914;39;20240;-38
2021/07/03 01:35:25;;;;;;;24.60;22.02;;;14.30;99.90;;;;;;3607960;39;20233;-39
2021/07/03 01:37:54;;;;;;;21.85;19.70;;;14.40;99.90;;;;;;3607189;39;20280;-38
2021/07/03 01:40:22;;;;;;;21.92;19.25;;;14.50;99.90;;;;;;3606704;39;20735;-38
2021/07/03 01:42:51;;;;;;;23.67;20.33;;;14.40;99.90;;;;;;3607014;39;20256;-41
2021/07/03 01:45:18;;;;;;;21.95;19.88;;;14.40;99.90;;;;;;3608966;39;20259;-38
2021/07/03 01:47:46;;;;;;;23.23;20.23;;;14.30;99.90;;;;;;3606914;39;20281;-38
2021/07/03 01:50:17;;;;;;;21.65;19.67;;;14.20;99.90;;;;;;3606765;39;20240;-40
2021/07/03 01:52:45;;;;;;;22.67;20.20;;;14.30;99.90;;;;;;3607670;39;20240;-40
2021/07/03 01:55:18;;;;;;;23.48;21.15;;;14.30;99.90;;;;;;3606827;39;20784;-38
2021/07/03 01:57:45;;;;;;;23.23;20.90;;;14.20;99.90;;;;;;3606987;39;20237;-40
2021/07/03 02:00:40;;;;;;;24.08;21.73;;;14.20;99.90;;;;;;3606869;39;20245;-38
2021/07/03 02:03:16;;;;;;;24.00;21.60;;;13.90;99.90;;;;;;3607725;39;20300;-38
2021/07/03 02:05:47;;;;;;;24.90;22.45;;;13.70;99.90;;;;;;3607987;39;20256;-38
2021/07/03 02:08:19;;;;;;;25.50;22.98;;;13.60;99.90;;;;;;3607592;39;20269;-38
2021/07/03 02:10:54;;;;;;;33.75;30.25;;;13.40;99.90;;;;;;3607827;39;20279;-38
2021/07/03 02:13:23;;;;;;;34.55;31.08;;;13.50;99.90;;;;;;3606932;39;20301;-38
2021/07/03 02:15:51;;;;;;;30.08;26.88;;;13.50;99.90;;;;;;3607568;39;20313;-38
2021/07/03 02:18:27;;;;;;;29.23;26.27;;;13.40;99.90;;;;;;3606470;39;20251;-38
2021/07/03 02:20:55;;;;;;;31.30;28.27;;;13.30;99.90;;;;;;3606169;39;20543;-38
2021/07/03 02:23:27;;;;;;;36.17;32.20;;;13.00;99.90;;;;;;3601772;39;20562;-40
2021/07/03 02:25:58;;;;;;;39.33;32.00;;;13.00;99.90;;;;;;3597210;39;20249;-38
2021/07/03 02:28:31;;;;;;;51.67;33.58;;;13.20;99.90;;;;;;3597755;39;20238;-40
2021/07/03 02:31:23;;;;;;;37.10;31.02;;;13.30;99.90;;;;;;3598342;40;20303;-38
2021/07/03 02:33:57;;;;;;;31.25;27.70;;;13.40;99.90;;;;;;3598049;40;20268;-38
2021/07/03 02:36:24;;;;;;;31.73;28.10;;;13.20;99.90;;;;;;3599030;39;20536;-38
2021/07/03 02:38:52;;;;;;;28.42;25.58;;;13.00;99.90;;;;;;3598054;40;20240;-38
2021/07/03 02:41:29;;;;;;;34.88;31.20;;;12.70;99.90;;;;;;3598831;39;20536;-40
2021/07/03 02:43:59;;;;;;;37.35;31.10;;;13.00;99.90;;;;;;3597968;40;20498;-40
2021/07/03 02:46:28;;;;;;;33.40;27.33;;;13.10;99.90;;;;;;3597622;40;20487;-38
2021/07/03 02:48:55;;;;;;;31.88;28.45;;;12.90;99.90;;;;;;3597707;40;20248;-38
2021/07/03 02:51:24;;;;;;;33.75;28.60;;;12.60;99.90;;;;;;3598640;39;20276;-38
2021/07/03 02:53:53;;;;;;;31.85;27.25;;;12.40;99.90;;;;;;3597852;40;20249;-41
2021/07/03 02:56:20;;;;;;;32.83;27.75;;;12.40;99.90;;;;;;3601083;39;20252;-39
2021/07/03 02:58:51;;;;;;;38.38;28.95;;;12.60;99.90;;;;;;3609183;39;20321;-38
2021/07/03 03:01:18;;;;;;;32.65;27.00;;;12.70;99.90;;;;;;3607906;39;20708;-38
2021/07/03 03:03:45;;;;;;;34.45;27.52;;;12.70;99.90;;;;;;3608135;39;20233;-41
2021/07/03 03:06:15;;;;;;;34.00;30.25;;;12.90;99.90;;;;;;3608077;39;20318;-40
2021/07/03 03:08:45;;;;;;;33.40;29.83;;;12.90;99.90;;;;;;3608385;39;20636;-37
2021/07/03 03:11:15;;;;;;;35.63;29.80;;;13.00;99.90;;;;;;3607333;39;20321;-40
2021/07/03 03:13:43;;;;;;;37.60;31.65;;;13.00;99.90;;;;;;3606876;39;20247;-38
2021/07/03 03:16:15;;;;;;;32.78;28.90;;;13.10;99.90;;;;;;3617284;39;20263;-40
2021/07/03 03:18:42;;;;;;;29.90;26.85;;;13.00;99.90;;;;;;3609091;39;20250;-38
2021/07/03 03:21:10;;;;;;;29.90;26.95;;;13.00;99.90;;;;;;3607354;39;20334;-38
2021/07/03 03:23:38;;;;;;;33.78;28.55;;;13.10;99.90;;;;;;3598431;39;20242;-39
2021/07/03 03:26:05;;;;;;;29.90;25.67;;;13.00;99.90;;;;;;3597507;39;20604;-38
2021/07/03 03:28:36;;;;;;;29.75;26.65;;;13.00;99.90;;;;;;3597614;40;20233;-40
2021/07/03 03:31:04;;;;;;;30.80;26.27;;;13.00;99.90;;;;;;3598367;39;20237;-39
2021/07/03 03:33:40;;;;;;;34.92;31.25;;;12.90;99.90;;;;;;3601308;39;20232;-38
2021/07/03 03:36:08;;;;;;;30.38;26.80;;;13.00;99.90;;;;;;3608824;39;20241;-39
2021/07/03 03:38:35;;;;;;;31.52;28.10;;;13.00;99.90;;;;;;3607874;39;20607;-38
2021/07/03 03:41:03;;;;;;;32.25;27.63;;;12.80;99.90;;;;;;3608688;39;20233;-38
2021/07/03 03:43:30;;;;;;;28.70;25.55;;;12.70;99.90;;;;;;3608563;39;20318;-40
2021/07/03 03:45:57;;;;;;;30.35;25.63;;;12.80;99.90;;;;;;3607313;39;20600;-38
2021/07/03 03:48:25;;;;;;;28.08;25.13;;;12.70;99.90;;;;;;3609223;39;20248;-38
2021/07/03 03:50:58;;;;;;;30.38;26.10;;;12.70;99.90;;;;;;3608715;39;20253;-38
2021/07/03 03:53:26;;;;;;;34.92;24.75;;;12.70;99.90;;;;;;3608313;39;20237;-37
2021/07/03 03:55:54;;;;;;;30.05;25.88;;;12.70;99.90;;;;;;3608007;39;20305;-40
2021/07/03 03:58:24;;;;;;;31.45;25.30;;;12.70;99.90;;;;;;3607922;39;20600;-37
2021/07/03 04:00:51;;;;;;;25.20;22.73;;;12.80;99.90;;;;;;3608747;39;20244;-38
2021/07/03 04:03:19;;;;;;;26.83;24.42;;;13.20;99.90;;;;;;3607929;39;20229;-40
2021/07/03 04:05:48;;;;;;;28.15;25.00;;;13.50;99.90;;;;;;3598901;39;20609;-38
2021/07/03 04:08:18;;;;;;;27.98;24.83;;;13.70;99.90;;;;;;3607461;39;20248;-38
2021/07/03 04:10:45;;;;;;;29.88;24.45;;;13.80;99.90;;;;;;3603198;39;20603;-39
2021/07/03 04:13:12;;;;;;;27.00;24.25;;;13.70;99.90;;;;;;3597979;39;20238;-38
2021/07/03 04:15:40;;;;;;;33.20;24.58;;;13.70;99.90;;;;;;3598408;39;20267;-41
2021/07/03 04:18:07;;;;;;;25.75;23.08;;;13.60;99.90;;;;;;3598237;39;20257;-37
2021/07/03 04:20:34;;;;;;;25.65;22.92;;;13.60;99.90;;;;;;3598004;40;20237;-38
2021/07/03 04:23:01;;;;;;;25.25;22.27;;;13.40;99.90;;;;;;3597917;40;20357;-38
2021/07/03 04:25:29;;;;;;;28.30;23.80;;;13.30;99.90;;;;;;3598516;40;20253;-38
2021/07/03 04:27:56;;;;;;;26.52;23.92;;;13.30;99.90;;;;;;3598331;39;20629;-37
2021/07/03 04:30:24;;;;;;;23.77;21.50;;;13.50;99.90;;;;;;3598125;39;20512;-38
2021/07/03 04:32:51;;;;;;;24.88;22.27;;;13.50;99.90;;;;;;3598208;39;20242;-41
2021/07/03 04:35:18;;;;;;;26.52;23.80;;;13.50;99.90;;;;;;3598126;39;20240;-38
2021/07/03 04:37:45;;;;;;;26.15;23.35;;;13.70;99.90;;;;;;3598358;40;20253;-39
2021/07/03 04:40:14;;;;;;;24.90;22.48;;;13.90;99.90;;;;;;3598201;39;20613;-39
2021/07/03 04:42:42;;;;;;;25.33;22.73;;;14.00;99.90;;;;;;3598386;39;20590;-38
2021/07/03 04:45:12;;;;;;;23.15;20.85;;;13.90;99.90;;;;;;3597054;40;20270;-41
2021/07/03 04:47:39;;;;;;;24.80;22.00;;;13.80;99.90;;;;;;3598700;39;20334;-38
2021/07/03 04:50:07;;;;;;;24.02;21.42;;;13.90;99.90;;;;;;3599030;40;20237;-39
2021/07/03 04:52:36;;;;;;;25.15;21.23;;;14.10;99.90;;;;;;3597562;39;20253;-39
2021/07/03 04:55:04;;;;;;;25.33;21.52;;;14.00;99.90;;;;;;3597451;40;20268;-38
2021/07/03 04:57:31;;;;;;;23.95;21.50;;;14.10;99.90;;;;;;3597898;39;20606;-38
2021/07/03 05:00:00;;;;;;;23.58;21.10;;;14.10;99.90;;;;;;3597878;39;20225;-41
2021/07/03 05:02:29;;;;;;;25.38;22.92;;;14.20;99.90;;;;;;3597768;40;20301;-38
2021/07/03 05:04:56;;;;;;;23.75;20.63;;;14.30;99.90;;;;;;3597826;39;20242;-40
2021/07/03 05:07:23;;;;;;;23.55;20.20;;;14.40;99.90;;;;;;3597712;39;20245;-38
2021/07/03 05:09:58;;;;;;;22.45;20.02;;;14.40;99.90;;;;;;3599101;39;20243;-39
2021/07/03 05:12:25;;;;;;;25.08;21.25;;;14.50;99.90;;;;;;3608107;39;20237;-39
2021/07/03 05:14:53;;;;;;;22.60;20.30;;;14.70;99.90;;;;;;3608025;39;20542;-39
2021/07/03 05:17:22;;;;;;;23.75;21.38;;;14.90;99.90;;;;;;3608484;39;20287;-38
2021/07/03 05:19:49;;;;;;;22.92;20.85;;;14.90;99.90;;;;;;3608149;39;20244;-39
2021/07/03 05:22:16;;;;;;;21.85;19.75;;;14.70;99.90;;;;;;3607989;39;20325;-38
2021/07/03 05:24:43;;;;;;;26.40;22.92;;;14.70;99.90;;;;;;3608214;39;20247;-40
2021/07/03 05:27:10;;;;;;;25.25;22.75;;;14.80;99.90;;;;;;3607906;39;20236;-38
2021/07/03 05:29:37;;;;;;;27.85;25.40;;;14.90;99.90;;;;;;3607776;39;20392;-38
2021/07/03 05:32:04;;;;;;;27.45;24.55;;;15.30;99.90;;;;;;3608264;39;20270;-39
2021/07/03 05:34:32;;;;;;;27.05;23.77;;;15.30;99.90;;;;;;3608382;39;20272;-42
2021/07/03 05:36:59;;;;;;;24.65;22.13;;;15.40;99.90;;;;;;3608019;39;20236;-39
2021/07/03 05:39:26;;;;;;;24.17;21.80;;;15.50;99.90;;;;;;3607517;39;20317;-38
2021/07/03 05:41:53;;;;;;;29.02;26.05;;;15.40;99.90;;;;;;3607709;39;20236;-39
2021/07/03 05:44:23;;;;;;;25.75;23.10;;;15.60;99.90;;;;;;3606738;39;20509;-38
2021/07/03 05:46:50;;;;;;;24.90;22.60;;;15.90;99.90;;;;;;3607736;39;20248;-38
2021/07/03 05:49:17;;;;;;;26.73;21.95;;;15.50;99.90;;;;;;3608469;39;20236;-38
2021/07/03 05:51:46;;;;;;;25.65;22.75;;;15.40;99.90;;;;;;3608405;39;20513;-37
2021/07/03 05:54:14;;;;;;;32.38;29.02;;;15.50;99.90;;;;;;3608652;39;20295;-38
2021/07/03 05:56:41;;;;;;;87.60;78.38;;;16.00;99.90;;;;;;3612182;39;20244;-38
2021/07/03 05:59:08;;;;;;;30.90;27.67;;;16.20;99.90;;;;;;3610858;39;20486;-39
2021/07/03 06:01:35;;;;;;;23.15;20.10;;;16.30;99.90;;;;;;3610872;39;20251;-38
2021/07/03 06:04:02;;;;;;;24.40;21.65;;;16.40;99.90;;;;;;3606588;39;20464;-38
2021/07/03 06:06:29;;;;;;;22.42;20.33;;;16.20;99.90;;;;;;3602310;39;20321;-38
2021/07/03 06:08:57;;;;;;;20.73;18.75;;;16.30;99.90;;;;;;3602674;39;20241;-38
2021/07/03 06:11:24;;;;;;;21.02;19.02;;;16.00;99.90;;;;;;3610467;39;20241;-38
2021/07/03 06:13:53;;;;;;;20.50;18.58;;;16.10;99.90;;;;;;3612329;39;20232;-39
2021/07/03 06:16:21;;;;;;;22.52;20.33;;;16.40;99.90;;;;;;3612175;39;20264;-38
2021/07/03 06:18:48;;;;;;;20.98;18.92;;;16.50;99.90;;;;;;3612513;39;20244;-39
2021/07/03 06:21:15;;;;;;;23.85;20.02;;;16.50;99.90;;;;;;3612691;39;20615;-38
2021/07/03 06:23:42;;;;;;;21.20;19.15;;;16.50;99.90;;;;;;3612747;39;20233;-41
2021/07/03 06:26:10;;;;;;;20.77;18.38;;;16.70;99.90;;;;;;3611949;39;20229;-39
2021/07/03 06:28:37;;;;;;;20.52;18.40;;;16.90;99.90;;;;;;3613105;39;20321;-38
2021/07/03 06:31:04;;;;;;;20.60;18.42;;;16.90;99.90;;;;;;3612361;39;20240;-38
2021/07/03 06:33:31;;;;;;;19.65;17.63;;;17.10;99.90;;;;;;3612928;39;20237;-39
2021/07/03 06:35:58;;;;;;;19.50;17.48;;;17.30;99.90;;;;;;3612407;39;20592;-38
2021/07/03 06:38:25;;;;;;;19.80;17.88;;;17.40;99.90;;;;;;3612640;39;20519;-38
2021/07/03 06:40:52;;;;;;;18.67;16.52;;;17.60;99.90;;;;;;3612860;39;20237;-36
2021/07/03 06:43:20;;;;;;;23.20;17.48;;;17.70;99.90;;;;;;3612466;39;20237;-36
2021/07/03 06:45:47;;;;;;;19.40;17.35;;;17.70;99.90;;;;;;3612759;39;20244;-36
2021/07/03 06:48:15;;;;;;;21.20;19.10;;;17.40;99.90;;;;;;3613052;39;20362;-36
2021/07/03 06:50:42;;;;;;;20.08;17.65;;;17.40;99.90;;;;;;3612238;39;20233;-36
2021/07/03 06:53:09;;;;;;;19.45;16.73;;;17.50;99.90;;;;;;3612259;39;20515;-36
2021/07/03 06:55:36;;;;;;;18.77;16.88;;;17.70;99.90;;;;;;3609853;39;20587;-36
2021/07/03 06:58:04;;;;;;;20.63;18.50;;;17.80;99.90;;;;;;3614178;39;20239;-36
2021/07/03 07:00:32;;;;;;;19.02;17.08;;;18.00;99.90;;;;;;3613169;39;20263;-36
2021/07/03 07:02:59;;;;;;;18.52;16.60;;;18.00;99.90;;;;;;3612655;39;20236;-36
2021/07/03 07:05:27;;;;;;;21.90;19.58;;;18.30;99.90;;;;;;3611910;39;20553;-36
2021/07/03 07:07:54;;;;;;;20.35;18.38;;;18.60;99.90;;;;;;3612652;39;20531;-36
2021/07/03 07:10:21;;;;;;;24.08;20.85;;;18.70;99.90;;;;;;3612238;39;20229;-36
2021/07/03 07:12:48;;;;;;;23.45;19.30;;;18.60;99.90;;;;;;3611845;39;20245;-36
2021/07/03 07:15:16;;;;;;;22.85;19.92;;;19.00;99.90;;;;;;3604542;39;20234;-36
2021/07/03 07:17:45;;;;;;;21.35;19.00;;;19.00;99.90;;;;;;3610503;39;20617;-36
2021/07/03 07:20:13;;;;;;;21.15;18.95;;;18.60;99.90;;;;;;3613174;39;20241;-36
2021/07/03 07:22:40;;;;;;;20.95;18.73;;;18.90;99.90;;;;;;3606459;39;20241;-36
2021/07/03 07:25:08;;;;;;;22.08;18.48;;;19.00;99.90;;;;;;3606687;39;20237;-38
2021/07/03 07:27:35;;;;;;;22.08;19.77;;;19.20;99.90;;;;;;3610870;39;20329;-37
2021/07/03 07:30:02;;;;;;;22.27;17.95;;;19.40;99.90;;;;;;3609006;39;20502;-37
2021/07/03 07:32:30;;;;;;;22.20;19.35;;;19.40;99.90;;;;;;3601850;39;20299;-36
2021/07/03 07:34:58;;;;;;;24.30;21.40;;;19.30;99.90;;;;;;3602024;40;20291;-37
2021/07/03 07:37:26;;;;;;;25.05;20.35;;;19.80;99.90;;;;;;3601784;39;20249;-37
2021/07/03 07:39:53;;;;;;;21.65;19.35;;;20.10;99.90;;;;;;3610922;39;20244;-37
2021/07/03 07:42:20;;;;;;;20.13;17.08;;;20.10;99.90;;;;;;3611351;39;20612;-37
2021/07/03 07:44:47;;;;;;;18.67;16.42;;;19.90;99.90;;;;;;3611049;39;20233;-36
2021/07/03 07:47:15;;;;;;;18.88;16.88;;;19.90;99.90;;;;;;3603965;39;20609;-40
2021/07/03 07:49:42;;;;;;;22.38;19.92;;;20.10;99.90;;;;;;3606702;39;20245;-36
2021/07/03 07:52:10;;;;;;;19.27;17.17;;;20.50;99.90;;;;;;3605123;39;20233;-37
2021/07/03 07:54:37;;;;;;;20.63;16.98;;;20.30;99.90;;;;;;3607056;39;20628;-37
2021/07/03 07:57:04;;;;;;;21.27;19.08;;;20.30;99.90;;;;;;3606092;39;20323;-37
2021/07/03 07:59:31;;;;;;;19.45;17.35;;;20.90;99.90;;;;;;3601247;40;20237;-37
2021/07/03 08:01:58;;;;;;;18.75;16.30;;;20.50;99.90;;;;;;3604033;39;20743;-36
2021/07/03 08:04:25;;;;;;;18.02;16.23;;;20.40;99.90;;;;;;3611644;39;20229;-40
2021/07/03 08:06:52;;;;;;;16.85;15.25;;;20.70;99.90;;;;;;3608932;39;20249;-37
2021/07/03 08:09:21;;;;;;;21.90;16.02;;;21.00;99.90;;;;;;3602021;39;20507;-37
2021/07/03 08:11:49;;;;;;;18.23;14.82;;;20.70;99.90;;;;;;3604675;39;20241;-37
2021/07/03 08:14:16;;;;;;;18.67;16.70;;;20.60;99.90;;;;;;3608145;39;20252;-37
2021/07/03 08:16:43;;;;;;;19.30;15.95;;;20.50;99.90;;;;;;3607523;39;20629;-37
2021/07/03 08:19:10;;;;;;;19.13;14.77;;;20.50;99.90;;;;;;3610089;39;20315;-40
2021/07/03 08:21:37;;;;;;;15.13;13.57;;;20.50;99.90;;;;;;3603692;39;20806;-37
2021/07/03 08:24:05;;;;;;;14.52;12.95;;;20.50;99.90;;;;;;3601930;39;20244;-40
2021/07/03 08:26:33;;;;;;;18.13;16.10;;;20.90;99.90;;;;;;3601517;39;20323;-37
2021/07/03 08:29:00;;;;;;;16.02;13.02;;;21.20;99.90;;;;;;3606280;39;20576;-37
2021/07/03 08:31:27;;;;;;;15.43;13.48;;;21.20;99.90;;;;;;3612180;39;20605;-37
2021/07/03 08:33:55;;;;;;;13.30;12.05;;;20.90;99.90;;;;;;3603536;39;20242;-37
2021/07/03 08:36:22;;;;;;;16.13;14.65;;;21.40;99.90;;;;;;3601109;39;20274;-37
2021/07/03 08:38:49;;;;;;;16.65;12.90;;;21.90;99.90;;;;;;3601886;40;20606;-37
2021/07/03 08:41:17;;;;;;;14.68;13.15;;;22.00;99.90;;;;;;3601288;40;20234;-36
2021/07/03 08:43:46;;;;;;;18.77;15.05;;;21.70;99.90;;;;;;3604231;39;20249;-37
2021/07/03 08:46:14;;;;;;;15.85;13.70;;;21.60;99.90;;;;;;3607678;39;20237;-37
2021/07/03 08:48:41;;;;;;;17.17;15.57;;;21.40;99.90;;;;;;3602619;39;20248;-37
2021/07/03 08:51:08;;;;;;;14.52;13.00;;;21.40;99.90;;;;;;3608607;39;20266;-37
2021/07/03 08:53:35;;;;;;;19.73;14.40;;;21.60;99.90;;;;;;3612186;39;20236;-37
2021/07/03 08:56:02;;;;;;;13.30;12.15;;;21.70;99.90;;;;;;3605159;39;20290;-37
2021/07/03 08:58:29;;;;;;;15.68;13.90;;;21.70;99.90;;;;;;3601639;39;20550;-37
2021/07/03 09:00:57;;;;;;;15.13;13.52;;;21.80;99.90;;;;;;3603838;39;20234;-37
2021/07/03 09:03:26;;;;;;;15.45;13.35;;;22.10;99.90;;;;;;3606090;39;20305;-36
2021/07/03 09:05:56;;;;;;;15.02;12.48;;;22.20;99.90;;;;;;3602891;39;20640;-37
2021/07/03 09:08:24;;;;;;;11.82;10.63;;;21.80;99.90;;;;;;3601147;39;20323;-37
2021/07/03 09:11:00;;;;;;;10.88;9.75;;;22.40;99.90;;;;;;3602530;39;20236;-37
2021/07/03 09:13:27;;;;;;;11.18;10.07;;;22.70;99.90;;;;;;3602757;39;20284;-37
2021/07/03 09:15:54;;;;;;;11.65;10.55;;;22.80;99.90;;;;;;3604422;39;20232;-37
2021/07/03 09:18:22;;;;;;;11.98;10.75;;;22.20;99.90;;;;;;3608608;39;20245;-37
2021/07/03 09:20:54;;;;;;;14.25;10.77;;;21.90;99.90;;;;;;3614956;39;20249;-37
2021/07/03 09:23:23;;;;;;;13.93;10.65;;;22.10;99.90;;;;;;3608371;39;20575;-37
2021/07/03 09:25:52;;;;;;;10.43;9.40;;;21.80;99.90;;;;;;3608794;39;20241;-37
2021/07/03 09:28:21;;;;;;;9.68;8.77;;;21.60;99.90;;;;;;3608533;39;20507;-39
2021/07/03 09:30:49;;;;;;;10.38;8.40;;;21.60;99.90;;;;;;3614566;39;20305;-37
2021/07/03 09:33:18;;;;;;;10.93;9.85;;;21.90;99.90;;;;;;3602335;39;20233;-37
2021/07/03 09:35:53;;;;;;;10.52;9.52;;;22.50;99.90;;;;;;3604235;39;20242;-37
2021/07/03 09:38:29;;;;;;;9.40;8.57;;;22.40;99.90;;;;;;3601943;39;20237;-37
2021/07/03 09:41:07;;;;;;;10.82;8.45;;;22.40;99.90;;;;;;3614618;39;20499;-37
2021/07/03 09:43:34;;;;;;;10.73;9.60;;;22.70;99.90;;;;;;3609757;39;20395;-37
2021/07/03 09:46:01;;;;;;;9.10;7.88;;;23.30;99.90;;;;;;3609255;39;20285;-37
2021/07/03 09:48:50;;;;;;;9.93;8.48;;;23.20;99.90;;;;;;3607567;39;20253;-37
2021/07/03 09:51:18;;;;;;;9.20;7.88;;;23.10;99.90;;;;;;3602136;39;20229;-37
2021/07/03 09:53:46;;;;;;;9.18;7.97;;;23.20;99.90;;;;;;3599619;39;20548;-37
2021/07/03 09:56:13;;;;;;;9.50;8.52;;;23.10;99.90;;;;;;3600685;39;20234;-37
2021/07/03 09:58:44;;;;;;;9.82;8.80;;;23.20;99.90;;;;;;3597316;39;20249;-37
2021/07/03 10:01:11;;;;;;;12.35;10.05;;;23.20;99.90;;;;;;3600347;39;20229;-37
2021/07/03 10:03:39;;;;;;;10.38;9.38;;;23.30;99.90;;;;;;3602495;39;20237;-37
2021/07/03 10:06:08;;;;;;;9.45;8.43;;;23.20;99.90;;;;;;3601880;39;20265;-38
2021/07/03 10:08:39;;;;;;;9.85;7.95;;;22.80;99.90;;;;;;3605034;39;20232;-37
2021/07/03 10:11:08;;;;;;;9.15;8.27;;;22.90;99.90;;;;;;3607869;39;20236;-36
2021/07/03 10:13:38;;;;;;;11.25;9.73;;;23.20;99.90;;;;;;3613275;39;20245;-36
2021/07/03 10:16:07;;;;;;;8.73;7.85;;;23.50;99.90;;;;;;3609268;39;20264;-36
2021/07/03 10:18:35;;;;;;;9.23;8.32;;;23.70;99.90;;;;;;3617940;39;20610;-37
2021/07/03 10:21:11;;;;;;;8.77;7.88;;;23.70;99.90;;;;;;3618309;39;20653;-36
2021/07/03 10:23:42;;;;;;;8.18;7.38;;;23.40;99.90;;;;;;3618585;39;20240;-36
2021/07/03 10:26:09;;;;;;;11.73;8.27;;;23.20;99.90;;;;;;3612512;39;20221;-36
2021/07/03 10:28:38;;;;;;;8.55;7.65;;;23.30;99.90;;;;;;3607842;39;20487;-36
2021/07/03 10:31:08;;;;;;;10.35;8.95;;;23.40;99.90;;;;;;3607680;39;20291;-38
2021/07/03 10:33:44;;;;;;;9.73;8.82;;;23.50;99.90;;;;;;3606925;39;20293;-36
2021/07/03 10:36:23;;;;;;;10.70;9.35;;;23.70;99.90;;;;;;3607972;39;20244;-36
2021/07/03 10:38:52;;;;;;;7.45;6.60;;;23.70;99.90;;;;;;3607964;39;20356;-36
2021/07/03 10:41:23;;;;;;;7.88;6.97;;;24.00;99.90;;;;;;3611930;39;20620;-36
2021/07/03 10:43:51;;;;;;;9.48;8.43;;;24.30;99.90;;;;;;3618330;39;20245;-37
2021/07/03 10:46:30;;;;;;;8.27;7.55;;;24.50;99.90;;;;;;3618604;39;20317;-36
2021/07/03 10:49:00;;;;;;;15.13;8.15;;;24.10;99.90;;;;;;3616917;39;20240;-37
2021/07/03 10:51:35;;;;;;;9.30;8.05;;;23.70;99.90;;;;;;3610324;39;20281;-37
2021/07/03 10:54:13;;;;;;;9.50;8.60;;;23.80;99.90;;;;;;3611049;39;20244;-36
2021/07/03 10:56:46;;;;;;;12.27;9.40;;;23.70;99.90;;;;;;3609515;39;20264;-37
2021/07/03 10:59:15;;;;;;;8.32;7.55;;;23.50;99.90;;;;;;3619083;39;20509;-37
2021/07/03 11:01:42;;;;;;;9.20;8.05;;;23.50;99.90;;;;;;3619713;39;20244;-37
2021/07/03 11:04:18;;;;;;;9.90;7.47;;;23.60;99.90;;;;;;3619646;39;20285;-37
2021/07/03 11:06:48;;;;;;;7.85;7.15;;;23.60;99.90;;;;;;3618294;39;20287;-37
2021/07/03 11:09:28;;;;;;;7.18;6.47;;;23.90;99.90;;;;;;3619322;39;20317;-37
2021/07/03 11:11:57;;;;;;;8.10;7.30;;;23.70;99.90;;;;;;3619848;39;20244;-36
2021/07/03 11:14:26;;;;;;;9.65;8.63;;;23.50;99.90;;;;;;3617848;39;20244;-37
2021/07/03 11:16:57;;;;;;;7.57;6.60;;;23.60;99.90;;;;;;3610104;39;20290;-37
2021/07/03 11:19:26;;;;;;;9.18;7.10;;;23.40;99.90;;;;;;3609462;39;20248;-37
2021/07/03 11:21:54;;;;;;;8.07;7.28;;;23.70;99.90;;;;;;3610223;39;20313;-37
2021/07/03 11:24:22;;;;;;;9.52;7.57;;;24.20;99.90;;;;;;3610140;39;20233;-38
2021/07/03 11:26:49;;;;;;;6.55;5.97;;;24.30;99.90;;;;;;3609748;39;20222;-38
2021/07/03 11:29:25;;;;;;;6.88;6.20;;;24.60;99.90;;;;;;3609290;39;20241;-37
2021/07/03 11:32:05;;;;;;;6.70;6.00;;;24.70;99.90;;;;;;3609635;39;20318;-38
2021/07/03 11:34:32;;;;;;;7.10;6.03;;;24.90;99.90;;;;;;3609534;39;20245;-37
2021/07/03 11:36:59;;;;;;;6.38;5.78;;;24.70;99.90;;;;;;3609242;39;20237;-37
2021/07/03 11:39:27;;;;;;;5.57;5.07;;;24.70;99.90;;;;;;3609233;39;20247;-38
2021/07/03 11:42:03;;;;;;;6.47;5.88;;;24.90;99.90;;;;;;3608692;39;20294;-38
2021/07/03 11:44:30;;;;;;;7.05;6.38;;;25.40;99.90;;;;;;3608716;39;20322;-38
2021/07/03 11:46:57;;;;;;;6.88;6.18;;;25.60;99.90;;;;;;3608978;39;20244;-38
2021/07/03 11:49:24;;;;;;;6.47;5.85;;;25.40;99.90;;;;;;3613655;39;20312;-37
2021/07/03 11:52:03;;;;;;;6.47;5.88;;;25.40;99.90;;;;;;3618103;39;20546;-38
2021/07/03 11:54:32;;;;;;;6.30;5.43;;;25.30;99.90;;;;;;3618932;39;20280;-38
2021/07/03 11:57:00;;;;;;;5.97;4.75;;;24.90;99.90;;;;;;3618916;39;20236;-38
2021/07/03 11:59:29;;;;;;;5.88;5.20;;;25.30;99.90;;;;;;3619191;39;20247;-38
2021/07/03 12:01:56;;;;;;;6.13;5.50;;;25.60;99.90;;;;;;3616229;39;20473;-38
2021/07/03 12:04:24;;;;;;;5.55;5.05;;;25.50;99.90;;;;;;3609971;39;20236;-38
2021/07/03 12:06:59;;;;;;;6.00;5.40;;;25.50;99.90;;;;;;3609167;39;20295;-38
2021/07/03 12:09:35;;;;;;;6.13;5.63;;;26.10;99.90;;;;;;3610207;39;20623;-38
2021/07/03 12:12:02;;;;;;;7.25;5.60;;;25.70;99.90;;;;;;3609170;39;20232;-38
2021/07/03 12:14:30;;;;;;;6.72;5.90;;;26.00;99.90;;;;;;3609715;39;20329;-37
2021/07/03 12:16:58;;;;;;;6.28;5.68;;;26.10;99.90;;;;;;3609068;39;20608;-38
2021/07/03 12:19:26;;;;;;;7.53;5.72;;;26.00;99.90;;;;;;3608081;39;20252;-38
2021/07/03 12:22:04;;;;;;;6.13;5.53;;;25.70;99.90;;;;;;3609333;39;20234;-38
2021/07/03 12:24:31;;;;;;;17.63;12.80;;;25.30;99.90;;;;;;3603421;39;20619;-39
2021/07/03 12:27:01;;;;;;;10.73;7.85;;;25.20;99.90;;;;;;3645021;22;20248;-86
2021/07/03 12:29:35;;;;;;;5.60;4.97;;;25.10;99.90;;;;;;3614527;39;20449;-85
2021/07/03 12:32:11;;;;;;;5.28;4.85;;;24.70;99.90;;;;;;3632910;39;20248;-85
2021/07/03 12:34:40;;;;;;;6.43;5.85;;;24.40;99.90;;;;;;3626625;39;20248;-86
2021/07/03 12:37:11;;;;;;;6.50;5.13;;;24.70;99.90;;;;;;3632271;39;20240;-83
2021/07/03 12:39:39;;;;;;;5.90;5.40;;;25.40;99.90;;;;;;3648242;22;20257;-40